createdAt,value
2022-08-19T00:04:35.826Z,98153.06
2022-08-19T00:09:38.635Z,98156.97
2022-08-19T00:14:43.277Z,98158.22
2022-08-19T00:19:46.049Z,98153.34
2022-08-19T00:24:49.608Z,98152.31
2022-08-19T00:29:55.271Z,98142.53
2022-08-19T00:34:58.184Z,98145.00
2022-08-19T00:40:00.929Z,98142.28
2022-08-19T00:45:12.490Z,98136.88
2022-08-19T00:50:18.709Z,98143.63
2022-08-19T00:55:24.417Z,98146.72
2022-08-19T01:00:29.691Z,98146.94
2022-08-19T01:05:32.790Z,98135.38
2022-08-19T01:10:40.998Z,98141.34
2022-08-19T01:15:48.848Z,98126.94
2022-08-19T01:20:53.932Z,98123.53
2022-08-19T01:25:57.993Z,98109.19
2022-08-19T01:31:01.817Z,98121.03
2022-08-19T01:36:13.689Z,98117.47
2022-08-19T01:41:19.459Z,98106.88
2022-08-19T01:46:24.907Z,98094.78
2022-08-19T01:51:28.309Z,98093.47
2022-08-19T01:56:32.911Z,98091.13
2022-08-19T02:01:35.903Z,98073.66
2022-08-19T02:06:39.195Z,98080.47
2022-08-19T02:11:43.415Z,98089.97
2022-08-19T02:16:46.153Z,98086.16
2022-08-19T02:21:48.859Z,98088.22
2022-08-19T02:26:53.173Z,98096.69
2022-08-19T02:31:55.899Z,98105.16
2022-08-19T02:37:01.900Z,98106.72
2022-08-19T02:42:08.153Z,98105.53
2022-08-19T02:47:11.961Z,98105.66
2022-08-19T02:52:14.968Z,98105.16
2022-08-19T02:57:19.041Z,98106.41
2022-08-19T03:02:22.170Z,98114.66
2022-08-19T03:07:24.863Z,98115.03
2022-08-19T03:12:29.083Z,98113.91
2022-08-19T03:17:31.891Z,98130.56
2022-08-19T03:22:34.629Z,98123.88
2022-08-19T03:27:38.688Z,98132.88
2022-08-19T03:32:41.730Z,98124.22
2022-08-19T03:37:48.267Z,98131.00
2022-08-19T03:42:52.542Z,98131.63
2022-08-19T03:47:55.328Z,98130.09
2022-08-19T03:52:58.045Z,98132.63
2022-08-19T03:58:02.105Z,98140.38
2022-08-19T04:03:04.939Z,98130.22
2022-08-19T04:08:10.792Z,98126.72
2022-08-19T04:13:19.169Z,98136.28
2022-08-19T04:18:21.869Z,98156.38
2022-08-19T04:23:24.942Z,98150.97
2022-08-19T04:28:29.868Z,98152.81
2022-08-19T04:33:32.723Z,98162.59
2022-08-19T04:38:35.562Z,98160.91
2022-08-19T04:43:40.496Z,98163.97
2022-08-19T04:48:49.435Z,98158.59
2022-08-19T04:53:53.354Z,98158.91
2022-08-19T04:58:58.503Z,98155.00
2022-08-19T05:04:02.481Z,98159.41
2022-08-19T05:09:07.334Z,98162.59
2022-08-19T05:14:13.318Z,98161.41
2022-08-19T05:19:33.691Z,98156.81
2022-08-19T05:24:44.051Z,98166.44
2022-08-19T05:29:55.469Z,98167.44
2022-08-19T05:34:58.842Z,98171.44
2022-08-19T05:40:02.376Z,98168.19
2022-08-19T05:45:07.801Z,98171.75
2022-08-19T05:50:11.477Z,98167.13
2022-08-19T05:55:14.421Z,98164.97
2022-08-19T06:00:24.032Z,98164.06
2022-08-19T06:05:27.480Z,98172.56
2022-08-19T06:10:30.970Z,98174.97
2022-08-19T06:15:35.864Z,98177.38
2022-08-19T06:20:55.078Z,98182.13
2022-08-19T06:25:58.665Z,98191.09
2022-08-19T06:31:08.230Z,98199.19
2022-08-19T06:36:19.367Z,98205.72
2022-08-19T06:41:22.111Z,98211.19
2022-08-19T06:46:27.252Z,98229.78
2022-08-19T06:56:35.593Z,98246.38
2022-08-19T07:01:42.362Z,98249.53
2022-08-19T07:06:45.727Z,98260.06
2022-08-19T07:11:58.138Z,98247.97
2022-08-19T07:17:02.241Z,98252.19
2022-08-19T07:22:07.418Z,98245.69
2022-08-19T07:27:16.978Z,98257.00
2022-08-19T07:32:21.096Z,98266.53
2022-08-19T07:37:23.906Z,98264.84
2022-08-19T07:42:26.692Z,98269.00
2022-08-19T07:47:48.968Z,98271.72
2022-08-19T07:52:54.814Z,98278.63
2022-08-19T07:57:57.648Z,98275.28
2022-08-19T08:03:01.873Z,98285.56
2022-08-19T08:08:37.211Z,98281.53
2022-08-19T08:13:47.272Z,98277.03
2022-08-19T08:19:20.593Z,98285.94
2022-08-19T08:24:31.558Z,98273.81
2022-08-19T08:29:35.336Z,98272.53
2022-08-19T08:34:39.474Z,98271.97
2022-08-19T08:39:42.287Z,98271.81
2022-08-19T08:50:06.711Z,98264.94
2022-08-19T08:55:13.225Z,98270.06
2022-08-19T09:00:21.858Z,98273.97
2022-08-19T09:05:39.499Z,98272.78
2022-08-19T09:10:55.309Z,98264.06
2022-08-19T09:16:03.263Z,98267.50
2022-08-19T09:21:08.682Z,98268.31
2022-08-19T09:26:16.327Z,98266.50
2022-08-19T09:31:21.682Z,98259.91
2022-08-19T09:36:31.269Z,98263.13
2022-08-19T09:41:37.798Z,98267.94
2022-08-19T09:46:40.671Z,98266.56
2022-08-19T09:51:46.882Z,98267.53
2022-08-19T09:56:54.545Z,98256.75
2022-08-19T10:02:04.002Z,98258.56
2022-08-19T10:07:15.337Z,98259.69
2022-08-19T10:12:20.157Z,98258.00
2022-08-19T10:17:26.423Z,98265.47
2022-08-19T10:22:31.653Z,98252.66
2022-08-19T10:27:34.501Z,98246.69
2022-08-19T10:32:38.554Z,98238.56
2022-08-19T10:37:57.047Z,98227.97
2022-08-19T10:43:02.852Z,98231.94
2022-08-19T10:48:05.877Z,98218.75
2022-08-19T10:53:10.438Z,98223.06
2022-08-19T10:58:14.885Z,98225.25
2022-08-19T11:03:17.741Z,98208.56
2022-08-19T11:08:22.967Z,98213.66
2022-08-19T11:13:26.718Z,98210.56
2022-08-19T11:18:30.084Z,98217.81
2022-08-19T11:23:34.275Z,98217.72
2022-08-19T11:28:37.419Z,98226.03
2022-08-19T11:33:40.561Z,98212.19
2022-08-19T11:38:46.890Z,98212.47
2022-08-19T11:43:49.753Z,98208.09
2022-08-19T11:48:53.086Z,98215.41
2022-08-19T11:53:58.539Z,98213.69
2022-08-19T11:59:02.743Z,98219.31
2022-08-19T12:04:06.336Z,98214.34
2022-08-19T12:09:11.989Z,98210.63
2022-08-19T12:14:16.842Z,98210.00
2022-08-19T12:19:22.591Z,98209.59
2022-08-19T12:24:26.905Z,98201.13
2022-08-19T12:29:30.277Z,98193.84
2022-08-19T12:34:34.477Z,98197.16
2022-08-19T12:39:40.828Z,98191.91
2022-08-19T12:44:45.055Z,98180.31
2022-08-19T12:49:53.068Z,98188.44
2022-08-19T12:54:59.537Z,98190.25
2022-08-19T13:00:07.059Z,98174.56
2022-08-19T13:05:13.150Z,98177.41
2022-08-19T13:10:20.505Z,98175.81
2022-08-19T13:15:24.715Z,98176.34
2022-08-19T13:20:27.902Z,98190.28
2022-08-19T13:25:32.001Z,98185.75
2022-08-19T13:30:52.780Z,98199.94
2022-08-19T13:36:01.458Z,98203.50
2022-08-19T13:41:12.153Z,98207.84
2022-08-19T13:46:16.044Z,98195.91
2022-08-19T13:51:19.707Z,98189.59
2022-08-19T13:56:26.350Z,98191.94
2022-08-19T14:01:31.180Z,98183.94
2022-08-19T14:06:34.049Z,98193.09
2022-08-19T14:11:38.332Z,98200.50
2022-08-19T14:16:41.041Z,98205.94
2022-08-19T14:21:43.769Z,98211.06
2022-08-19T14:26:47.862Z,98209.38
2022-08-19T14:31:50.622Z,98208.53
2022-08-19T14:36:53.667Z,98211.75
2022-08-19T14:41:58.245Z,98205.31
2022-08-19T14:47:01.066Z,98205.72
2022-08-19T14:52:06.031Z,98209.09
2022-08-19T14:57:13.506Z,98213.22
2022-08-19T15:02:33.838Z,98227.53
2022-08-19T15:07:37.293Z,98233.66
2022-08-19T15:12:41.787Z,98238.25
2022-08-19T15:17:46.694Z,98257.81
2022-08-19T15:22:49.466Z,98236.88
2022-08-19T15:27:53.680Z,98241.00
2022-08-19T15:32:57.771Z,98238.34
2022-08-19T15:38:00.611Z,98230.78
2022-08-19T15:43:04.763Z,98229.84
2022-08-19T15:48:07.652Z,98226.78
2022-08-19T15:53:11.605Z,98231.63
2022-08-19T15:58:35.312Z,98209.88
2022-08-19T16:03:55.836Z,98187.25
2022-08-19T16:09:01.908Z,98186.97
2022-08-19T16:14:09.189Z,98188.97
2022-08-19T16:19:13.359Z,98186.38
2022-08-19T16:24:19.293Z,98175.47
2022-08-19T16:29:33.832Z,98179.53
2022-08-19T16:34:38.906Z,98171.44
2022-08-19T16:39:43.642Z,98176.19
2022-08-19T16:44:48.581Z,98171.22
2022-08-19T16:49:52.990Z,98173.94
2022-08-19T16:54:58.110Z,98186.22
2022-08-19T17:00:05.219Z,98178.06
2022-08-19T17:05:10.041Z,98169.44
2022-08-19T17:10:12.830Z,98176.81
2022-08-19T17:15:16.942Z,98182.41
2022-08-19T17:20:20.299Z,98189.00
2022-08-19T17:25:23.168Z,98192.31
2022-08-19T17:30:27.440Z,98179.81
2022-08-19T17:35:30.291Z,98176.16
2022-08-19T17:40:33.261Z,98178.41
2022-08-19T17:45:38.704Z,98190.91
2022-08-19T17:50:41.642Z,98183.41
2022-08-19T17:55:44.937Z,98180.91
2022-08-19T18:00:54.418Z,98184.75
2022-08-19T18:05:58.544Z,98195.03
2022-08-19T18:11:01.522Z,98196.63
2022-08-19T18:16:10.878Z,98210.50
2022-08-19T18:21:13.781Z,98213.94
2022-08-19T18:26:16.676Z,98219.88
2022-08-19T18:31:21.054Z,98224.72
2022-08-19T18:36:50.181Z,98234.72
2022-08-19T18:42:04.290Z,98230.88
2022-08-19T18:47:26.175Z,98237.06
2022-08-19T18:52:28.931Z,98248.09
2022-08-19T18:57:31.638Z,98263.03
2022-08-19T19:02:39.879Z,98266.91
2022-08-19T19:07:43.934Z,98276.00
2022-08-19T19:12:47.159Z,98278.13
2022-08-19T19:17:51.278Z,98280.25
2022-08-19T19:22:55.948Z,98288.69
2022-08-19T19:28:01.194Z,98286.41
2022-08-19T19:33:05.878Z,98291.88
2022-08-19T19:38:08.587Z,98295.69
2022-08-19T19:43:11.301Z,98306.41
2022-08-19T19:48:16.497Z,98306.22
2022-08-19T19:53:19.270Z,98310.63
2022-08-19T19:58:28.887Z,98325.97
2022-08-19T20:03:33.422Z,98329.56
2022-08-19T20:08:54.738Z,98334.56
2022-08-19T20:13:57.515Z,98333.09
2022-08-19T20:19:03.454Z,98332.69
2022-08-19T20:24:09.905Z,98340.84
2022-08-19T20:29:13.465Z,98339.84
2022-08-19T20:34:37.421Z,98337.53
2022-08-19T20:39:40.285Z,98345.50
2022-08-19T20:44:43.047Z,98345.72
2022-08-19T20:49:47.274Z,98356.19
2022-08-19T20:54:50.154Z,98351.16
2022-08-19T20:59:52.891Z,98359.53
2022-08-19T21:04:59.099Z,98352.00
2022-08-19T21:10:03.189Z,98360.19
2022-08-19T21:15:08.639Z,98347.88
2022-08-19T21:20:12.844Z,98352.03
2022-08-19T21:25:17.159Z,98354.91
2022-08-19T21:30:20.030Z,98357.25
2022-08-19T21:35:24.965Z,98347.81
2022-08-19T21:40:28.305Z,98360.34
2022-08-19T21:45:31.321Z,98370.16
2022-08-19T21:50:35.897Z,98372.25
2022-08-19T21:55:39.702Z,98372.03
2022-08-19T22:00:42.556Z,98365.78
2022-08-19T22:05:46.669Z,98362.44
2022-08-19T22:10:50.085Z,98359.28
2022-08-19T22:15:52.918Z,98357.41
2022-08-19T22:20:57.109Z,98356.97
2022-08-19T22:25:59.959Z,98358.84
2022-08-19T22:31:03.446Z,98353.81
2022-08-19T22:36:08.678Z,98354.00
2022-08-19T22:41:11.874Z,98366.72
2022-08-19T22:46:17.398Z,98373.81
2022-08-19T22:51:39.472Z,98365.16
2022-08-19T22:56:43.337Z,98369.56
2022-08-19T23:01:46.998Z,98360.16
2022-08-19T23:06:52.768Z,98360.75
2022-08-19T23:11:55.561Z,98359.25
2022-08-19T23:16:59.231Z,98367.00
2022-08-19T23:22:05.162Z,98359.88
2022-08-19T23:27:25.745Z,98359.41
2022-08-19T23:32:29.257Z,98355.22
2022-08-19T23:37:33.355Z,98352.47
2022-08-19T23:42:36.329Z,98352.06
2022-08-19T23:47:40.589Z,98361.41
2022-08-19T23:52:47.863Z,98369.75
2022-08-19T23:57:50.839Z,98367.19
